createdAt,value
2023-05-21T00:05:19.361Z,3.90
2023-05-21T00:08:41.702Z,3.65
2023-05-21T00:11:47.445Z,3.60
2023-05-21T00:17:57.009Z,3.00
2023-05-21T00:20:53.042Z,3.35
2023-05-21T00:28:31.289Z,3.78
2023-05-21T00:32:09.088Z,3.33
2023-05-21T00:35:41.486Z,3.60
2023-05-21T00:38:46.161Z,3.22
2023-05-21T00:42:12.299Z,3.20
2023-05-21T00:45:54.080Z,3.47
2023-05-21T00:56:00.126Z,3.15
2023-05-21T00:59:13.054Z,2.95
2023-05-21T01:05:48.610Z,3.05
2023-05-21T01:09:36.567Z,3.22
2023-05-21T01:13:20.275Z,3.22
2023-05-21T01:16:25.733Z,3.28
2023-05-21T01:24:09.797Z,3.20
2023-05-21T01:27:18.097Z,3.13
2023-05-21T01:30:27.563Z,3.47
2023-05-21T01:33:38.771Z,3.10
2023-05-21T01:36:48.533Z,2.88
2023-05-21T01:47:56.761Z,3.30
2023-05-21T01:53:24.777Z,3.00
2023-05-21T02:00:01.534Z,2.50
2023-05-21T02:02:49.698Z,3.22
2023-05-21T02:06:06.202Z,3.10
2023-05-21T02:09:46.994Z,2.80
2023-05-21T02:26:05.430Z,3.10
2023-05-21T02:28:52.021Z,3.13
2023-05-21T02:32:08.819Z,3.35
2023-05-21T02:35:21.210Z,2.90
2023-05-21T02:38:38.080Z,3.58
2023-05-21T02:41:30.920Z,3.00
2023-05-21T02:44:42.017Z,3.08
2023-05-21T02:47:54.217Z,3.50
2023-05-21T02:50:59.333Z,3.10
2023-05-21T02:53:58.665Z,3.15
2023-05-21T02:57:19.734Z,3.42
2023-05-21T02:59:42.633Z,3.08
2023-05-21T03:06:40.932Z,3.22
2023-05-21T03:09:44.119Z,3.47
2023-05-21T03:12:46.478Z,3.45
2023-05-21T03:19:14.977Z,3.00
2023-05-21T03:26:43.385Z,3.47
2023-05-21T03:33:23.839Z,3.45
2023-05-21T03:36:11.315Z,3.15
2023-05-21T03:39:23.910Z,3.50
2023-05-21T03:43:03.951Z,3.40
2023-05-21T03:54:29.634Z,3.53
2023-05-21T04:01:53.361Z,3.53
2023-05-21T04:08:22.373Z,3.25
2023-05-21T04:14:34.090Z,2.90
2023-05-21T04:17:51.923Z,3.13
2023-05-21T04:20:46.742Z,3.47
2023-05-21T04:27:21.746Z,3.25
2023-05-21T04:30:21.080Z,3.00
2023-05-21T04:33:10.874Z,3.55
2023-05-21T04:36:13.592Z,3.45
2023-05-21T04:39:28.697Z,3.10
2023-05-21T04:45:57.425Z,2.80
2023-05-21T04:49:09.014Z,3.15
2023-05-21T04:51:57.193Z,3.22
2023-05-21T04:55:16.334Z,3.58
2023-05-21T04:58:53.086Z,3.13
2023-05-21T05:01:42.574Z,3.50
2023-05-21T05:08:33.651Z,3.58
2023-05-21T05:11:45.201Z,3.20
2023-05-21T05:15:03.463Z,3.75
2023-05-21T05:18:05.356Z,3.45
2023-05-21T05:24:45.582Z,3.13
2023-05-21T05:31:00.935Z,3.60
2023-05-21T05:34:01.961Z,3.47
2023-05-21T05:37:15.819Z,3.40
2023-05-21T05:40:28.766Z,3.58
2023-05-21T05:43:47.090Z,3.45
2023-05-21T05:46:56.277Z,3.65
2023-05-21T05:49:56.160Z,3.88
2023-05-21T05:52:56.523Z,3.80
2023-05-21T05:56:16.461Z,3.72
2023-05-21T05:59:15.693Z,3.50
2023-05-21T06:02:22.697Z,3.35
2023-05-21T06:05:22.358Z,3.65
2023-05-21T06:08:09.692Z,3.15
2023-05-21T06:11:12.407Z,3.80
2023-05-21T06:13:47.750Z,3.50
2023-05-21T06:16:45.428Z,3.55
2023-05-21T06:24:00.443Z,3.40
2023-05-21T06:27:12.512Z,3.47
2023-05-21T06:30:20.472Z,3.40
2023-05-21T06:32:55.162Z,3.40
2023-05-21T06:35:52.408Z,3.40
2023-05-21T06:38:53.695Z,3.25
2023-05-21T06:41:54.295Z,3.40
2023-05-21T06:44:37.976Z,3.15
2023-05-21T06:50:05.201Z,3.33
2023-05-21T06:53:09.421Z,3.13
2023-05-21T06:59:34.797Z,3.15
2023-05-21T07:02:08.938Z,3.00
2023-05-21T07:05:22.620Z,2.90
2023-05-21T07:08:12.693Z,3.17
2023-05-21T07:10:56.195Z,3.08
2023-05-21T07:16:56.899Z,2.60
2023-05-21T07:19:42.589Z,2.80
2023-05-21T07:22:23.117Z,2.90
2023-05-21T07:25:19.875Z,3.03
2023-05-21T07:28:14.370Z,3.10
2023-05-21T07:31:18.604Z,2.67
2023-05-21T07:33:54.056Z,3.55
2023-05-21T07:36:48.169Z,3.03
2023-05-21T07:40:33.027Z,3.40
2023-05-21T07:44:39.829Z,2.58
2023-05-21T07:47:59.508Z,2.97
2023-05-21T07:50:44.313Z,2.90
2023-05-21T07:53:24.015Z,2.88
2023-05-21T07:56:10.149Z,3.05
2023-05-21T07:59:06.488Z,3.35
2023-05-21T08:02:25.765Z,3.45
2023-05-21T08:05:18.651Z,3.05
2023-05-21T08:08:30.540Z,2.92
2023-05-21T08:11:14.450Z,2.80
2023-05-21T08:13:46.884Z,2.95
2023-05-21T08:16:21.478Z,2.25
2023-05-21T08:18:55.037Z,2.97
2023-05-21T08:21:38.854Z,3.70
2023-05-21T08:24:21.568Z,2.85
2023-05-21T08:27:14.034Z,3.50
2023-05-21T08:29:43.444Z,3.60
2023-05-21T08:32:19.072Z,3.30
2023-05-21T08:35:33.783Z,2.75
2023-05-21T08:38:14.553Z,3.17
2023-05-21T08:40:43.994Z,3.38
2023-05-21T08:43:14.690Z,3.10
2023-05-21T08:46:08.294Z,3.50
2023-05-21T08:48:59.062Z,3.70
2023-05-21T08:51:57.245Z,3.35
2023-05-21T08:54:36.907Z,3.67
2023-05-21T08:57:22.498Z,3.80
2023-05-21T09:00:27.100Z,3.20
2023-05-21T09:03:19.739Z,2.95
2023-05-21T09:06:16.047Z,3.47
2023-05-21T09:12:12.202Z,3.50
2023-05-21T09:18:08.662Z,3.15
2023-05-21T09:20:49.136Z,2.83
2023-05-21T09:23:43.782Z,3.20
2023-05-21T09:29:10.193Z,3.28
2023-05-21T09:32:13.021Z,3.17
2023-05-21T09:37:54.097Z,3.28
2023-05-21T09:40:39.715Z,2.95
2023-05-21T09:43:15.781Z,3.38
2023-05-21T09:45:53.546Z,3.05
2023-05-21T09:48:37.411Z,3.20
2023-05-21T09:51:10.945Z,3.50
2023-05-21T09:53:48.079Z,3.35
2023-05-21T09:56:17.185Z,3.03
2023-05-21T09:59:20.103Z,3.15
2023-05-21T10:08:14.832Z,3.35
2023-05-21T10:10:57.950Z,2.90
2023-05-21T10:16:53.730Z,2.83
2023-05-21T10:20:02.335Z,2.80
2023-05-21T10:26:04.827Z,3.33
2023-05-21T10:28:44.200Z,3.30
2023-05-21T10:31:17.445Z,3.28
2023-05-21T10:34:06.697Z,3.22
2023-05-21T10:36:40.227Z,3.47
2023-05-21T10:39:27.914Z,3.00
2023-05-21T10:42:25.485Z,2.90
2023-05-21T10:45:13.015Z,2.80
2023-05-21T10:48:27.058Z,3.58
2023-05-21T10:51:38.942Z,2.88
2023-05-21T10:54:34.521Z,2.95
2023-05-21T10:57:34.172Z,3.25
2023-05-21T11:00:16.963Z,3.58
2023-05-21T11:02:58.970Z,3.25
2023-05-21T11:06:02.207Z,3.03
2023-05-21T11:08:39.880Z,3.33
2023-05-21T11:11:22.563Z,3.65
2023-05-21T11:14:02.354Z,3.15
2023-05-21T11:16:52.853Z,3.10
2023-05-21T11:19:39.599Z,3.08
2023-05-21T11:22:37.318Z,3.13
2023-05-21T11:25:30.641Z,3.67
2023-05-21T11:28:11.712Z,3.10
2023-05-21T11:31:43.555Z,3.00
2023-05-21T11:35:03.934Z,3.13
2023-05-21T11:40:56.993Z,2.95
2023-05-21T11:44:07.759Z,3.25
2023-05-21T11:49:55.959Z,3.00
2023-05-21T11:52:56.300Z,2.80
2023-05-21T11:59:12.720Z,3.10
2023-05-21T12:01:44.591Z,3.20
2023-05-21T12:04:20.555Z,2.90
2023-05-21T12:07:05.176Z,3.15
2023-05-21T12:09:46.898Z,3.15
2023-05-21T12:12:21.500Z,3.13
2023-05-21T12:14:57.452Z,2.72
2023-05-21T12:17:41.390Z,3.10
2023-05-21T12:20:21.511Z,3.05
2023-05-21T12:23:07.771Z,3.22
2023-05-21T12:26:06.452Z,3.25
2023-05-21T12:28:35.180Z,3.08
2023-05-21T12:31:05.857Z,2.95
2023-05-21T12:33:36.408Z,2.92
2023-05-21T12:36:08.443Z,3.08
2023-05-21T12:38:39.112Z,3.00
2023-05-21T12:41:12.093Z,3.53
2023-05-21T12:43:56.113Z,3.22
2023-05-21T12:46:39.251Z,3.20
2023-05-21T12:49:14.234Z,3.30
2023-05-21T12:52:07.175Z,3.28
2023-05-21T12:54:50.824Z,3.03
2023-05-21T12:57:41.392Z,3.00
2023-05-21T13:00:12.860Z,3.13
2023-05-21T13:02:53.226Z,3.03
2023-05-21T13:05:31.685Z,3.13
2023-05-21T13:08:14.602Z,3.20
2023-05-21T13:10:54.382Z,2.85
2023-05-21T13:13:46.502Z,3.25
2023-05-21T13:16:25.313Z,3.22
2023-05-21T13:19:02.081Z,2.95
2023-05-21T13:21:36.402Z,3.28
2023-05-21T13:24:10.885Z,3.03
2023-05-21T13:26:48.094Z,3.20
2023-05-21T13:29:17.443Z,3.15
2023-05-21T13:31:46.419Z,2.97
2023-05-21T13:34:20.069Z,3.00
2023-05-21T13:36:48.920Z,3.28
2023-05-21T13:39:17.816Z,3.38
2023-05-21T13:41:47.684Z,3.03
2023-05-21T13:44:16.601Z,3.00
2023-05-21T13:46:46.945Z,3.10
2023-05-21T13:49:38.007Z,3.22
2023-05-21T13:52:15.561Z,3.15
2023-05-21T13:54:48.552Z,3.00
2023-05-21T13:57:17.641Z,3.30
2023-05-21T13:59:46.652Z,2.90
2023-05-21T14:02:19.221Z,3.10
2023-05-21T14:05:09.941Z,2.92
2023-05-21T14:08:07.005Z,3.17
2023-05-21T14:11:11.123Z,3.00
2023-05-21T14:13:53.016Z,3.27
2023-05-21T14:16:29.709Z,2.88
2023-05-21T14:19:06.999Z,2.75
2023-05-21T14:21:44.481Z,2.95
2023-05-21T14:24:23.700Z,2.63
2023-05-21T14:27:06.434Z,3.03
2023-05-21T14:29:58.035Z,2.70
2023-05-21T14:33:02.067Z,2.83
2023-05-21T14:35:54.046Z,3.03
2023-05-21T14:38:50.380Z,3.03
2023-05-21T14:41:33.765Z,3.05
2023-05-21T14:44:20.283Z,2.92
2023-05-21T14:47:12.534Z,2.97
2023-05-21T14:50:00.568Z,3.08
2023-05-21T14:53:08.481Z,3.00
2023-05-21T14:59:01.018Z,2.70
2023-05-21T15:01:32.663Z,3.10
2023-05-21T15:04:13.676Z,3.20
2023-05-21T15:06:43.190Z,3.10
2023-05-21T15:09:15.358Z,2.80
2023-05-21T15:11:57.103Z,2.95
2023-05-21T15:14:47.182Z,3.00
2023-05-21T15:17:32.006Z,2.90
2023-05-21T15:20:36.116Z,3.05
2023-05-21T15:26:14.878Z,3.17
2023-05-21T15:29:09.428Z,3.20
2023-05-21T15:31:44.207Z,3.10
2023-05-21T15:34:19.357Z,3.40
2023-05-21T15:40:10.775Z,3.05
2023-05-21T15:43:54.782Z,2.97
2023-05-21T15:46:45.941Z,3.10
2023-05-21T15:49:31.704Z,2.85
2023-05-21T15:52:25.474Z,3.08
2023-05-21T15:55:06.500Z,3.05
2023-05-21T15:58:18.744Z,3.30
2023-05-21T16:00:56.744Z,3.60
2023-05-21T16:03:35.175Z,3.20
2023-05-21T16:06:17.758Z,3.15
2023-05-21T16:08:47.420Z,2.88
2023-05-21T16:11:16.691Z,2.97
2023-05-21T16:13:47.957Z,3.00
2023-05-21T16:16:17.091Z,3.15
2023-05-21T16:18:48.044Z,2.97
2023-05-21T16:21:17.078Z,3.17
2023-05-21T16:23:46.124Z,3.15
2023-05-21T16:26:14.952Z,3.35
2023-05-21T16:28:43.433Z,3.05
2023-05-21T16:31:12.865Z,3.05
2023-05-21T16:33:41.648Z,3.30
2023-05-21T16:36:12.026Z,3.25
2023-05-21T16:38:43.685Z,3.53
2023-05-21T16:41:12.698Z,3.25
2023-05-21T16:43:41.474Z,3.50
2023-05-21T16:46:10.486Z,3.80
2023-05-21T16:49:08.034Z,3.47
2023-05-21T16:51:40.544Z,3.55
2023-05-21T16:54:15.479Z,3.60
2023-05-21T16:56:55.787Z,3.33
2023-05-21T16:59:41.019Z,3.20
2023-05-21T17:02:26.319Z,3.42
2023-05-21T17:04:59.972Z,3.40
2023-05-21T17:07:37.736Z,3.13
2023-05-21T17:10:15.871Z,3.60
2023-05-21T17:12:52.431Z,3.50
2023-05-21T17:15:24.449Z,3.53
2023-05-21T17:17:58.226Z,3.22
2023-05-21T17:20:32.901Z,3.17
2023-05-21T17:23:15.077Z,3.40
2023-05-21T17:26:09.307Z,3.60
2023-05-21T17:28:50.742Z,3.17
2023-05-21T17:31:34.394Z,3.17
2023-05-21T17:34:20.766Z,3.20
2023-05-21T17:39:57.803Z,2.92
2023-05-21T17:42:28.914Z,3.30
2023-05-21T17:44:57.366Z,3.20
2023-05-21T17:47:25.922Z,2.95
2023-05-21T17:49:55.292Z,3.33
2023-05-21T17:52:24.390Z,3.03
2023-05-21T17:54:55.537Z,3.30
2023-05-21T17:57:24.605Z,3.13
2023-05-21T17:59:53.383Z,3.15
2023-05-21T18:02:23.630Z,3.60
2023-05-21T18:04:52.857Z,3.17
2023-05-21T18:07:22.306Z,3.22
2023-05-21T18:09:51.500Z,3.55
2023-05-21T18:12:22.185Z,3.40
2023-05-21T18:14:51.446Z,3.35
2023-05-21T18:17:23.095Z,3.28
2023-05-21T18:19:54.897Z,3.13
2023-05-21T18:22:24.192Z,3.50
2023-05-21T18:24:53.082Z,3.30
2023-05-21T18:27:23.986Z,3.22
2023-05-21T18:29:53.109Z,3.20
2023-05-21T18:32:22.236Z,3.13
2023-05-21T18:34:51.887Z,3.00
2023-05-21T18:37:20.987Z,2.80
2023-05-21T18:39:50.204Z,2.50
2023-05-21T18:42:20.651Z,2.63
2023-05-21T18:44:52.647Z,2.60
2023-05-21T18:47:22.981Z,2.13
2023-05-21T18:49:52.480Z,2.33
2023-05-21T18:52:21.876Z,2.80
2023-05-21T18:54:52.238Z,2.80
2023-05-21T18:57:21.589Z,2.60
2023-05-21T18:59:52.086Z,2.53
2023-05-21T19:02:24.338Z,2.60
2023-05-21T19:04:54.039Z,2.47
2023-05-21T19:07:26.537Z,2.25
2023-05-21T19:12:42.550Z,2.45
2023-05-21T19:15:20.663Z,2.40
2023-05-21T19:17:50.214Z,2.30
2023-05-21T19:20:33.091Z,2.35
2023-05-21T19:23:28.316Z,2.40
2023-05-21T19:28:01.778Z,2.63
2023-05-21T19:33:15.323Z,2.60
2023-05-21T19:36:19.259Z,2.30
2023-05-21T19:38:51.771Z,2.28
2023-05-21T20:11:46.893Z,2.17
2023-05-21T20:18:32.449Z,2.42
2023-05-21T20:21:26.184Z,2.42
2023-05-21T20:29:06.590Z,2.63
2023-05-21T20:38:29.707Z,2.53
2023-05-21T20:40:46.396Z,2.33
2023-05-21T20:43:16.631Z,2.47
2023-05-21T20:45:58.169Z,2.17
2023-05-21T20:48:34.915Z,2.17
2023-05-21T20:51:29.305Z,2.17
2023-05-21T20:54:29.785Z,2.30
2023-05-21T20:57:13.579Z,2.03
2023-05-21T20:59:54.451Z,2.17
2023-05-21T21:02:23.502Z,2.28
2023-05-21T21:05:04.387Z,2.15
2023-05-21T21:07:37.796Z,2.33
2023-05-21T21:10:17.555Z,2.10
2023-05-21T21:12:51.948Z,2.10
2023-05-21T21:15:27.167Z,1.80
2023-05-21T21:17:55.883Z,1.90
2023-05-21T21:20:40.264Z,2.28
2023-05-21T21:23:13.392Z,2.10
2023-05-21T21:25:52.779Z,2.33
2023-05-21T21:29:05.746Z,2.08
2023-05-21T21:32:40.357Z,2.22
2023-05-21T21:35:48.462Z,2.67
2023-05-21T21:39:08.606Z,2.20
2023-05-21T21:45:35.561Z,2.10
2023-05-21T21:48:17.775Z,2.20
2023-05-21T21:51:15.310Z,2.35
2023-05-21T21:54:13.127Z,2.13
2023-05-21T21:57:06.741Z,2.20
2023-05-21T21:59:47.116Z,2.03
2023-05-21T22:02:35.361Z,2.33
2023-05-21T22:05:39.812Z,1.95
2023-05-21T22:08:27.800Z,2.00
2023-05-21T22:11:20.261Z,2.33
2023-05-21T22:14:15.306Z,2.10
2023-05-21T22:17:00.343Z,2.47
2023-05-21T22:19:29.251Z,2.28
2023-05-21T22:22:10.981Z,2.17
2023-05-21T22:24:49.129Z,2.22
2023-05-21T22:27:21.331Z,2.30
2023-05-21T22:29:56.193Z,2.28
2023-05-21T22:32:30.121Z,2.20
2023-05-21T22:35:06.799Z,2.17
2023-05-21T22:37:37.471Z,2.10
2023-05-21T22:40:14.603Z,2.28
2023-05-21T22:42:56.927Z,2.22
2023-05-21T22:45:30.946Z,2.22
2023-05-21T22:48:01.841Z,2.10
2023-05-21T22:50:35.315Z,2.20
2023-05-21T22:53:04.458Z,2.40
2023-05-21T22:55:39.312Z,2.28
2023-05-21T22:58:21.661Z,1.90
2023-05-21T23:00:53.394Z,2.00
2023-05-21T23:03:22.353Z,2.67
2023-05-21T23:05:51.607Z,2.50
2023-05-21T23:08:23.859Z,2.13
2023-05-21T23:11:05.962Z,2.03
2023-05-21T23:13:39.318Z,2.15
2023-05-21T23:16:20.606Z,2.17
2023-05-21T23:19:04.287Z,2.28
2023-05-21T23:21:55.533Z,2.15
2023-05-21T23:24:30.869Z,2.15
2023-05-21T23:27:03.146Z,2.20
2023-05-21T23:29:42.116Z,2.08
2023-05-21T23:32:11.424Z,2.05
2023-05-21T23:35:03.199Z,2.08
2023-05-21T23:37:32.520Z,2.15
2023-05-21T23:40:03.395Z,2.20
2023-05-21T23:42:35.545Z,2.17
2023-05-21T23:45:07.574Z,2.38
2023-05-21T23:47:36.389Z,2.28
2023-05-21T23:50:11.445Z,1.98
2023-05-21T23:52:43.369Z,2.35
2023-05-21T23:55:15.453Z,2.22
2023-05-21T23:57:48.588Z,2.13
